createdAt,value
2018-10-05T00:01:51.475Z,8.48
2018-10-05T00:04:20.424Z,8.36
2018-10-05T00:06:49.391Z,8.24
2018-10-05T00:09:18.359Z,8.13
2018-10-05T00:11:47.380Z,8.08
2018-10-05T00:14:16.343Z,8.03
2018-10-05T00:16:45.299Z,7.99
2018-10-05T00:19:14.326Z,7.96
2018-10-05T00:21:43.274Z,7.96
2018-10-05T00:24:12.230Z,7.87
2018-10-05T00:26:41.252Z,7.77
2018-10-05T00:29:10.236Z,7.76
2018-10-05T00:31:39.230Z,7.72
2018-10-05T00:34:08.218Z,7.66
2018-10-05T00:36:37.298Z,7.66
2018-10-05T00:39:07.994Z,7.69
2018-10-05T00:41:37.010Z,7.69
2018-10-05T00:44:07.263Z,7.70
2018-10-05T00:46:36.218Z,7.70
2018-10-05T00:49:05.214Z,7.71
2018-10-05T00:51:34.179Z,7.70
2018-10-05T00:54:03.333Z,7.71
2018-10-05T00:56:32.367Z,7.66
2018-10-05T00:59:01.354Z,7.60
2018-10-05T01:01:30.347Z,7.58
2018-10-05T01:03:59.331Z,7.58
2018-10-05T01:06:28.286Z,7.51
2018-10-05T01:08:57.330Z,7.42
2018-10-05T01:11:26.459Z,7.39
2018-10-05T01:13:55.433Z,7.41
2018-10-05T01:16:24.402Z,7.40
2018-10-05T01:18:53.397Z,7.39
2018-10-05T01:21:22.396Z,7.37
2018-10-05T01:23:51.446Z,7.30
2018-10-05T01:26:20.407Z,7.28
2018-10-05T01:28:49.383Z,7.23
2018-10-05T01:31:18.388Z,7.26
2018-10-05T01:33:47.397Z,7.26
2018-10-05T01:36:16.370Z,7.31
2018-10-05T01:38:45.338Z,7.35
2018-10-05T01:41:14.344Z,7.39
2018-10-05T01:43:43.280Z,7.47
2018-10-05T01:46:12.230Z,7.48
2018-10-05T01:48:41.263Z,7.47
2018-10-05T01:51:10.237Z,7.48
2018-10-05T01:53:39.218Z,7.49
2018-10-05T01:56:08.178Z,7.51
2018-10-05T01:58:37.209Z,7.48
2018-10-05T02:01:06.151Z,7.49
2018-10-05T02:03:35.139Z,7.44
2018-10-05T02:06:04.102Z,7.38
2018-10-05T02:08:33.082Z,7.41
2018-10-05T02:11:02.058Z,7.33
2018-10-05T02:13:31.024Z,7.37
2018-10-05T02:16:00.080Z,7.34
2018-10-05T02:18:29.058Z,7.21
2018-10-05T02:20:58.050Z,7.13
2018-10-05T02:23:27.058Z,7.03
2018-10-05T02:25:56.237Z,6.99
2018-10-05T02:28:25.238Z,6.94
2018-10-05T02:30:54.186Z,6.89
2018-10-05T02:33:23.232Z,6.83
2018-10-05T02:35:52.229Z,6.75
2018-10-05T02:38:21.285Z,6.71
2018-10-05T02:40:50.296Z,6.66
2018-10-05T02:43:19.254Z,6.62
2018-10-05T02:45:48.270Z,6.56
2018-10-05T02:48:17.214Z,6.55
2018-10-05T02:50:46.298Z,6.53
2018-10-05T02:53:15.251Z,6.53
2018-10-05T02:55:44.190Z,6.52
2018-10-05T02:58:13.162Z,6.54
2018-10-05T03:00:53.100Z,6.48
2018-10-05T03:03:22.084Z,6.55
2018-10-05T03:05:51.147Z,6.57
2018-10-05T03:08:20.124Z,6.57
2018-10-05T03:10:49.127Z,6.59
2018-10-05T03:13:18.167Z,6.57
2018-10-05T03:15:47.131Z,6.57
2018-10-05T03:18:16.118Z,6.58
2018-10-05T03:20:45.086Z,6.58
2018-10-05T03:23:14.062Z,6.60
2018-10-05T03:25:43.050Z,6.64
2018-10-05T03:28:12.038Z,6.67
2018-10-05T03:30:41.105Z,6.66
2018-10-05T03:33:10.109Z,6.66
2018-10-05T03:35:39.112Z,6.61
2018-10-05T03:38:08.132Z,6.61
2018-10-05T03:40:37.119Z,6.58
2018-10-05T03:43:06.122Z,6.55
2018-10-05T03:45:35.102Z,6.49
2018-10-05T03:48:04.169Z,6.38
2018-10-05T03:50:33.130Z,6.30
2018-10-05T03:53:02.075Z,6.26
2018-10-05T03:55:31.091Z,6.20
2018-10-05T03:58:00.055Z,6.14
2018-10-05T04:00:29.034Z,6.10
2018-10-05T04:02:57.986Z,6.10
2018-10-05T04:05:27.012Z,6.10
2018-10-05T04:07:55.975Z,6.06
2018-10-05T04:10:25.278Z,6.07
2018-10-05T04:12:54.272Z,6.03
2018-10-05T04:15:23.318Z,6.08
2018-10-05T04:17:52.316Z,6.10
2018-10-05T04:20:21.265Z,6.14
2018-10-05T04:22:50.316Z,6.18
2018-10-05T04:25:19.281Z,6.21
2018-10-05T04:27:48.253Z,6.24
2018-10-05T04:30:17.225Z,6.31
2018-10-05T04:32:46.260Z,6.30
2018-10-05T04:35:15.245Z,6.29
2018-10-05T04:37:44.211Z,6.32
2018-10-05T04:40:13.231Z,6.38
2018-10-05T04:42:42.210Z,6.45
2018-10-05T04:45:11.205Z,6.56
2018-10-05T04:47:40.219Z,6.66
2018-10-05T04:50:09.280Z,6.81
2018-10-05T04:52:38.623Z,7.06
2018-10-05T04:55:07.646Z,7.59
2018-10-05T04:57:36.666Z,7.95
2018-10-05T05:00:05.713Z,8.13
2018-10-05T05:02:34.748Z,8.11
2018-10-05T05:05:03.779Z,8.22
2018-10-05T05:07:32.824Z,8.44
2018-10-05T05:10:01.818Z,8.65
2018-10-05T05:12:30.848Z,8.81
2018-10-05T05:15:00.522Z,8.87
2018-10-05T05:17:29.479Z,9.07
2018-10-05T05:19:59.179Z,9.27
2018-10-05T05:22:28.149Z,9.55
2018-10-05T05:24:57.122Z,9.67
2018-10-05T05:27:26.077Z,9.76
2018-10-05T05:29:55.034Z,9.97
2018-10-05T05:32:24.099Z,10.04
2018-10-05T05:34:53.048Z,10.23
2018-10-05T05:37:22.016Z,10.30
2018-10-05T05:39:51.087Z,10.35
2018-10-05T05:42:20.054Z,10.44
2018-10-05T05:44:49.006Z,10.54
2018-10-05T05:47:17.973Z,10.73
2018-10-05T05:49:47.008Z,10.98
2018-10-05T05:52:15.953Z,11.19
2018-10-05T05:54:44.926Z,11.38
2018-10-05T05:57:13.886Z,11.34
2018-10-05T05:59:42.874Z,11.54
2018-10-05T06:02:11.890Z,11.69
2018-10-05T06:04:40.975Z,11.95
2018-10-05T06:07:09.967Z,11.93
2018-10-05T06:09:38.902Z,12.00
2018-10-05T06:12:08.063Z,12.09
2018-10-05T06:14:37.036Z,12.13
2018-10-05T06:17:06.006Z,12.22
2018-10-05T06:19:34.990Z,12.31
2018-10-05T06:22:04.019Z,12.43
2018-10-05T06:24:32.930Z,12.50
2018-10-05T06:27:01.887Z,12.70
2018-10-05T06:29:30.902Z,12.83
2018-10-05T06:31:59.876Z,13.04
2018-10-05T06:34:28.847Z,13.25
2018-10-05T06:36:57.799Z,13.24
2018-10-05T06:39:26.754Z,13.18
2018-10-05T06:41:55.763Z,13.32
2018-10-05T06:44:25.001Z,13.36
2018-10-05T06:46:53.998Z,13.34
2018-10-05T06:49:22.989Z,13.52
2018-10-05T06:51:51.942Z,13.72
2018-10-05T06:54:20.906Z,13.88
2018-10-05T06:56:49.854Z,13.82
2018-10-05T06:59:18.836Z,13.86
2018-10-05T07:01:47.821Z,13.91
2018-10-05T07:04:16.890Z,13.89
2018-10-05T07:06:45.858Z,13.87
2018-10-05T07:09:14.801Z,13.89
2018-10-05T07:11:43.769Z,13.93
2018-10-05T07:14:12.720Z,13.91
2018-10-05T07:16:41.770Z,14.13
2018-10-05T07:19:10.747Z,14.33
2018-10-05T07:21:39.768Z,14.35
2018-10-05T07:24:08.700Z,14.42
2018-10-05T07:26:37.668Z,14.51
2018-10-05T07:29:06.670Z,14.68
2018-10-05T07:31:35.638Z,14.91
2018-10-05T07:34:04.666Z,15.05
2018-10-05T07:36:33.627Z,15.10
2018-10-05T07:39:02.742Z,15.27
2018-10-05T07:41:31.713Z,15.44
2018-10-05T07:44:00.668Z,15.61
2018-10-05T07:46:29.635Z,15.77
2018-10-05T07:48:58.606Z,15.89
2018-10-05T07:51:27.571Z,15.95
2018-10-05T07:53:56.518Z,16.03
2018-10-05T07:56:25.538Z,16.08
2018-10-05T07:58:55.801Z,16.17
2018-10-05T08:01:24.786Z,16.18
2018-10-05T08:03:53.790Z,16.24
2018-10-05T08:06:22.764Z,16.36
2018-10-05T08:08:51.770Z,16.44
2018-10-05T08:11:20.719Z,16.64
2018-10-05T08:13:49.742Z,16.85
2018-10-05T08:16:18.738Z,17.01
2018-10-05T08:18:47.702Z,17.13
2018-10-05T08:21:16.651Z,17.25
2018-10-05T08:23:45.618Z,17.38
2018-10-05T08:26:14.581Z,17.49
2018-10-05T08:28:43.542Z,17.58
2018-10-05T08:31:12.554Z,17.67
2018-10-05T08:33:41.513Z,17.80
2018-10-05T08:36:10.483Z,17.84
2018-10-05T08:38:39.458Z,17.96
2018-10-05T08:41:08.425Z,18.04
2018-10-05T08:43:37.367Z,18.10
2018-10-05T08:46:06.328Z,18.14
2018-10-05T08:48:35.339Z,18.23
2018-10-05T08:51:04.277Z,18.40
2018-10-05T08:53:33.210Z,18.46
2018-10-05T08:56:02.166Z,18.58
2018-10-05T08:58:31.118Z,18.56
2018-10-05T09:01:00.079Z,18.51
2018-10-05T09:03:29.039Z,18.77
2018-10-05T09:05:58.042Z,18.87
2018-10-05T09:08:26.979Z,19.00
2018-10-05T09:10:55.948Z,19.17
2018-10-05T09:13:24.898Z,19.21
2018-10-05T09:15:53.864Z,19.32
2018-10-05T09:18:22.839Z,19.49
2018-10-05T09:20:51.786Z,19.59
2018-10-05T09:23:20.846Z,19.66
2018-10-05T09:25:49.826Z,19.88
2018-10-05T09:28:18.781Z,20.02
2018-10-05T09:30:47.873Z,20.24
2018-10-05T09:33:16.735Z,20.37
2018-10-05T09:35:45.886Z,20.51
2018-10-05T09:38:14.843Z,20.49
2018-10-05T09:40:43.806Z,20.53
2018-10-05T09:43:12.783Z,20.55
2018-10-05T09:45:41.752Z,20.63
2018-10-05T09:48:10.714Z,20.76
2018-10-05T09:50:39.686Z,20.89
2018-10-05T09:53:08.722Z,21.08
2018-10-05T09:55:37.679Z,21.19
2018-10-05T09:58:06.674Z,21.17
2018-10-05T10:00:40.854Z,21.27
2018-10-05T10:03:32.061Z,21.36
2018-10-05T10:06:01.453Z,21.45
2018-10-05T10:08:30.491Z,21.42
2018-10-05T10:10:59.455Z,21.48
2018-10-05T10:13:28.470Z,21.74
2018-10-05T10:15:57.504Z,21.92
2018-10-05T10:18:26.506Z,21.94
2018-10-05T10:20:55.490Z,21.98
2018-10-05T10:23:24.516Z,22.03
2018-10-05T10:25:53.498Z,22.13
2018-10-05T10:28:22.549Z,22.26
2018-10-05T10:30:51.538Z,22.45
2018-10-05T10:33:20.510Z,22.63
2018-10-05T10:35:49.470Z,22.82
2018-10-05T10:38:18.419Z,22.87
2018-10-05T10:40:47.421Z,22.98
2018-10-05T10:43:16.383Z,23.07
2018-10-05T10:45:45.367Z,23.08
2018-10-05T10:48:14.360Z,23.22
2018-10-05T10:50:43.421Z,23.70
2018-10-05T10:53:12.483Z,24.54
2018-10-05T10:55:41.437Z,25.29
2018-10-05T10:58:10.446Z,25.85
2018-10-05T11:00:39.415Z,26.29
2018-10-05T11:03:08.436Z,26.23
2018-10-05T11:05:37.398Z,26.10
2018-10-05T11:08:06.460Z,26.01
2018-10-05T11:10:35.430Z,25.78
2018-10-05T11:13:04.595Z,25.60
2018-10-05T11:15:33.615Z,25.79
2018-10-05T11:18:02.572Z,26.00
2018-10-05T11:20:31.578Z,27.00
2018-10-05T11:23:00.544Z,28.24
2018-10-05T11:25:29.627Z,29.17
2018-10-05T11:27:58.574Z,29.30
2018-10-05T11:30:27.553Z,29.71
2018-10-05T11:32:56.625Z,30.31
2018-10-05T11:35:25.583Z,30.38
2018-10-05T11:37:54.599Z,30.50
2018-10-05T11:40:30.177Z,30.29
2018-10-05T11:42:59.226Z,31.48
2018-10-05T11:45:28.210Z,32.15
2018-10-05T11:47:57.197Z,32.10
2018-10-05T11:50:26.226Z,31.43
2018-10-05T11:52:55.225Z,31.13
2018-10-05T11:55:24.396Z,31.30
2018-10-05T11:57:53.396Z,31.91
2018-10-05T12:00:22.449Z,32.38
2018-10-05T12:02:51.414Z,32.58
2018-10-05T12:05:20.468Z,33.27
2018-10-05T12:07:49.389Z,32.68
2018-10-05T12:10:18.382Z,31.61
2018-10-05T12:12:47.367Z,30.20
2018-10-05T12:15:16.360Z,28.45
2018-10-05T12:17:45.410Z,27.42
2018-10-05T12:20:14.392Z,26.60
2018-10-05T12:22:43.367Z,25.65
2018-10-05T12:25:12.363Z,25.06
2018-10-05T12:27:41.350Z,24.45
2018-10-05T12:30:10.343Z,24.13
2018-10-05T12:32:39.309Z,23.83
2018-10-05T12:35:08.371Z,23.60
2018-10-05T12:37:37.334Z,23.33
2018-10-05T12:40:06.422Z,23.11
2018-10-05T12:42:35.490Z,22.86
2018-10-05T12:45:04.469Z,22.64
2018-10-05T12:47:33.463Z,22.51
2018-10-05T12:50:02.531Z,22.50
2018-10-05T12:52:31.518Z,22.30
2018-10-05T12:55:00.486Z,22.23
2018-10-05T12:57:29.541Z,22.18
2018-10-05T12:59:58.555Z,22.16
2018-10-05T13:02:27.555Z,22.01
2018-10-05T13:04:56.745Z,21.92
2018-10-05T13:07:25.694Z,21.91
2018-10-05T13:09:54.756Z,21.87
2018-10-05T13:12:23.732Z,21.74
2018-10-05T13:14:52.696Z,21.73
2018-10-05T13:17:21.725Z,21.74
2018-10-05T13:22:18.549Z,21.70
2018-10-05T13:24:47.537Z,21.70
2018-10-05T13:27:16.633Z,21.65
2018-10-05T13:29:45.613Z,21.67
2018-10-05T13:32:14.571Z,21.65
2018-10-05T13:34:43.598Z,21.51
2018-10-05T13:37:12.601Z,21.51
2018-10-05T13:39:41.622Z,21.49
2018-10-05T13:42:10.637Z,21.45
2018-10-05T13:44:39.680Z,21.38
2018-10-05T13:47:08.706Z,21.34
2018-10-05T13:49:37.672Z,21.30
2018-10-05T13:52:06.866Z,21.31
2018-10-05T13:54:35.818Z,21.26
2018-10-05T13:57:04.812Z,21.21
2018-10-05T13:59:33.811Z,21.19
2018-10-05T14:02:02.849Z,21.15
2018-10-05T14:04:31.874Z,21.13
2018-10-05T14:07:00.880Z,21.09
2018-10-05T14:09:29.896Z,21.00
2018-10-05T14:11:58.858Z,20.97
2018-10-05T14:14:27.846Z,20.91
2018-10-05T14:16:56.871Z,20.90
2018-10-05T14:19:25.895Z,20.83
2018-10-05T14:21:54.876Z,20.77
2018-10-05T14:24:23.847Z,20.70
2018-10-05T14:26:52.867Z,20.59
2018-10-05T14:29:22.704Z,20.51
2018-10-05T14:31:51.931Z,20.45
2018-10-05T14:34:20.878Z,20.40
2018-10-05T14:36:50.093Z,20.34
2018-10-05T14:39:19.105Z,20.34
2018-10-05T14:41:48.141Z,20.27
2018-10-05T14:44:17.060Z,20.20
2018-10-05T14:46:46.008Z,20.22
2018-10-05T14:49:15.066Z,20.15
2018-10-05T14:51:44.030Z,20.05
2018-10-05T14:54:13.085Z,19.94
2018-10-05T14:56:42.053Z,19.94
2018-10-05T14:59:11.020Z,19.85
2018-10-05T15:01:39.989Z,19.78
2018-10-05T15:04:08.984Z,19.65
2018-10-05T15:06:37.955Z,19.57
2018-10-05T15:09:07.201Z,19.47
2018-10-05T15:11:36.286Z,19.42
2018-10-05T15:14:05.243Z,19.38
2018-10-05T15:16:34.211Z,19.29
2018-10-05T15:19:03.189Z,19.16
2018-10-05T15:21:32.242Z,19.08
2018-10-05T15:24:01.200Z,18.94
2018-10-05T15:26:30.157Z,18.85
2018-10-05T15:28:59.194Z,18.79
2018-10-05T15:31:28.180Z,18.66
2018-10-05T15:33:57.190Z,18.48
2018-10-05T15:36:26.171Z,18.29
2018-10-05T15:38:55.152Z,18.11
2018-10-05T15:41:24.152Z,17.93
2018-10-05T15:43:53.127Z,17.78
2018-10-05T15:46:33.139Z,17.63
2018-10-05T15:49:02.119Z,17.39
2018-10-05T15:51:31.095Z,17.21
2018-10-05T15:54:00.095Z,17.03
2018-10-05T15:56:29.114Z,16.80
2018-10-05T15:58:58.105Z,16.60
2018-10-05T16:01:27.087Z,16.44
2018-10-05T16:03:56.161Z,16.27
2018-10-05T16:06:25.127Z,16.09
2018-10-05T16:08:54.133Z,15.89
2018-10-05T16:11:23.126Z,15.72
2018-10-05T16:13:52.105Z,15.56
2018-10-05T16:16:21.623Z,15.42
2018-10-05T16:18:50.597Z,15.32
2018-10-05T16:21:19.648Z,15.21
2018-10-05T16:23:48.690Z,15.10
2018-10-05T16:26:17.652Z,14.99
2018-10-05T16:28:46.650Z,14.86
2018-10-05T16:31:15.686Z,14.79
2018-10-05T16:33:44.787Z,14.70
2018-10-05T16:36:13.744Z,14.61
2018-10-05T16:38:42.907Z,14.53
2018-10-05T16:41:11.853Z,14.43
2018-10-05T16:43:40.872Z,14.34
2018-10-05T16:46:09.795Z,14.28
2018-10-05T16:48:38.765Z,14.21
2018-10-05T16:51:07.788Z,14.13
2018-10-05T16:53:36.750Z,14.07
2018-10-05T16:56:05.819Z,14.00
2018-10-05T16:58:34.893Z,13.94
2018-10-05T17:01:03.925Z,13.85
2018-10-05T17:03:33.018Z,13.85
2018-10-05T17:06:01.993Z,13.81
2018-10-05T17:08:32.844Z,13.78
2018-10-05T17:11:01.969Z,13.79
2018-10-05T17:13:30.889Z,13.83
2018-10-05T17:15:59.927Z,13.87
2018-10-05T17:18:28.930Z,13.90
2018-10-05T17:20:57.951Z,14.00
2018-10-05T17:23:26.951Z,13.99
2018-10-05T17:25:55.961Z,13.99
2018-10-05T17:28:24.919Z,14.02
2018-10-05T17:30:54.031Z,14.08
2018-10-05T17:33:23.032Z,14.19
2018-10-05T17:35:52.027Z,14.34
2018-10-05T17:38:21.009Z,14.42
2018-10-05T17:40:50.049Z,14.41
2018-10-05T17:43:19.046Z,14.42
2018-10-05T17:45:48.067Z,14.42
2018-10-05T17:48:17.158Z,14.43
2018-10-05T17:50:46.121Z,14.45
2018-10-05T17:53:15.088Z,14.51
2018-10-05T17:55:44.279Z,14.56
2018-10-05T17:58:13.242Z,14.63
2018-10-05T18:00:42.261Z,14.76
2018-10-05T18:03:11.222Z,14.79
2018-10-05T18:05:40.261Z,14.82
2018-10-05T18:08:09.270Z,14.87
2018-10-05T18:10:38.217Z,14.86
2018-10-05T18:13:07.339Z,14.88
2018-10-05T18:15:37.054Z,14.82
2018-10-05T18:18:06.022Z,14.78
2018-10-05T18:20:34.992Z,14.73
2018-10-05T18:23:04.019Z,14.67
2018-10-05T18:25:33.005Z,14.58
2018-10-05T18:28:01.948Z,14.46
2018-10-05T18:30:30.942Z,14.39
2018-10-05T18:33:00.039Z,14.30
2018-10-05T18:35:29.132Z,14.24
2018-10-05T18:37:58.145Z,14.18
2018-10-05T18:40:27.179Z,14.12
2018-10-05T18:42:56.210Z,14.09
2018-10-05T18:45:25.188Z,14.04
2018-10-05T18:47:54.171Z,13.93
2018-10-05T18:50:23.110Z,13.94
2018-10-05T18:52:52.118Z,13.87
2018-10-05T18:55:21.056Z,13.82
2018-10-05T18:57:50.001Z,13.69
2018-10-05T19:00:19.037Z,13.57
2018-10-05T19:02:47.987Z,13.45
2018-10-05T19:05:17.056Z,13.28
2018-10-05T19:07:46.059Z,13.25
2018-10-05T19:10:15.098Z,13.21
2018-10-05T19:12:44.063Z,13.19
2018-10-05T19:15:13.046Z,13.30
2018-10-05T19:17:42.044Z,13.25
2018-10-05T19:20:11.045Z,13.23
2018-10-05T19:22:40.043Z,13.30
2018-10-05T19:25:09.029Z,13.38
2018-10-05T19:27:38.083Z,13.48
2018-10-05T19:30:07.070Z,13.52
2018-10-05T19:32:36.079Z,13.53
2018-10-05T19:35:05.107Z,13.52
2018-10-05T19:37:34.223Z,13.50
2018-10-05T19:40:03.222Z,13.48
2018-10-05T19:42:32.212Z,13.48
2018-10-05T19:45:01.300Z,13.45
2018-10-05T19:47:30.304Z,13.38
2018-10-05T19:49:59.263Z,13.25
2018-10-05T19:52:28.217Z,13.22
2018-10-05T19:54:57.180Z,13.14
2018-10-05T19:57:26.182Z,13.09
2018-10-05T19:59:55.168Z,13.05
2018-10-05T20:02:24.246Z,12.96
2018-10-05T20:04:53.257Z,12.92
2018-10-05T20:07:22.242Z,12.85
2018-10-05T20:09:51.292Z,12.83
2018-10-05T20:12:20.263Z,12.70
2018-10-05T20:14:49.355Z,12.71
2018-10-05T20:17:18.423Z,12.61
2018-10-05T20:19:47.464Z,12.52
2018-10-05T20:22:16.440Z,12.43
2018-10-05T20:24:45.426Z,12.37
2018-10-05T20:27:14.463Z,12.26
2018-10-05T20:29:43.467Z,12.21
2018-10-05T20:32:12.472Z,12.17
2018-10-05T20:34:41.458Z,12.19
2018-10-05T20:37:10.565Z,12.10
2018-10-05T20:39:39.457Z,12.05
2018-10-05T20:42:08.436Z,11.93
2018-10-05T20:44:37.523Z,11.81
2018-10-05T20:47:06.539Z,11.70
2018-10-05T20:49:35.507Z,11.65
2018-10-05T20:52:04.503Z,11.54
2018-10-05T20:54:33.562Z,11.50
2018-10-05T20:57:02.539Z,11.42
2018-10-05T20:59:31.487Z,11.34
2018-10-05T21:02:00.473Z,11.24
2018-10-05T21:04:29.455Z,11.23
2018-10-05T21:06:58.444Z,11.17
2018-10-05T21:09:27.399Z,11.14
2018-10-05T21:11:56.408Z,11.08
2018-10-05T21:14:25.346Z,11.10
2018-10-05T21:16:54.302Z,11.15
2018-10-05T21:19:23.262Z,11.12
2018-10-05T21:21:52.226Z,11.18
2018-10-05T21:24:21.181Z,11.26
2018-10-05T21:26:50.129Z,11.31
2018-10-05T21:29:19.139Z,11.31
2018-10-05T21:31:48.078Z,11.29
2018-10-05T21:34:17.043Z,11.30
2018-10-05T21:36:46.023Z,11.33
2018-10-05T21:39:14.991Z,11.35
2018-10-05T21:41:44.115Z,11.35
2018-10-05T21:44:13.058Z,11.38
2018-10-05T21:46:42.091Z,11.35
2018-10-05T21:49:11.074Z,11.29
2018-10-05T21:51:40.044Z,11.29
2018-10-05T21:54:09.051Z,11.25
2018-10-05T21:56:37.983Z,11.32
2018-10-05T21:59:07.005Z,11.33
2018-10-05T22:01:35.970Z,11.31
2018-10-05T22:04:05.001Z,11.35
2018-10-05T22:06:34.000Z,11.35
2018-10-05T22:09:03.138Z,11.29
2018-10-05T22:11:32.126Z,11.23
2018-10-05T22:14:01.960Z,11.16
2018-10-05T22:16:30.902Z,11.05
2018-10-05T22:18:59.856Z,10.96
2018-10-05T22:21:28.888Z,11.04
2018-10-05T22:23:57.852Z,11.10
2018-10-05T22:26:26.792Z,11.05
2018-10-05T22:28:55.754Z,10.97
2018-10-05T22:31:24.701Z,11.18
2018-10-05T22:33:53.707Z,11.31
2018-10-05T22:36:22.745Z,11.31
2018-10-05T22:38:51.791Z,11.35
2018-10-05T22:41:20.739Z,11.59
2018-10-05T22:43:50.027Z,11.81
2018-10-05T22:46:19.566Z,11.86
2018-10-05T22:48:48.671Z,11.86
2018-10-05T22:51:17.654Z,11.88
2018-10-05T22:53:46.683Z,12.03
2018-10-05T22:56:15.702Z,12.14
2018-10-05T22:58:44.652Z,12.17
2018-10-05T23:01:13.604Z,12.20
2018-10-05T23:03:42.566Z,12.24
2018-10-05T23:06:11.555Z,12.30
2018-10-05T23:08:40.522Z,12.34
2018-10-05T23:11:09.470Z,12.33
2018-10-05T23:13:38.516Z,12.35
2018-10-05T23:16:07.615Z,12.34
2018-10-05T23:18:36.580Z,12.32
2018-10-05T23:21:05.574Z,12.26
2018-10-05T23:23:34.531Z,12.30
2018-10-05T23:26:03.542Z,12.30
2018-10-05T23:28:32.529Z,12.31
2018-10-05T23:31:01.574Z,12.19
2018-10-05T23:33:30.561Z,12.21
2018-10-05T23:35:59.515Z,12.14
2018-10-05T23:38:28.487Z,12.07
2018-10-05T23:40:57.497Z,11.98
2018-10-05T23:43:26.486Z,11.95
2018-10-05T23:45:55.486Z,11.89
2018-10-05T23:48:24.562Z,11.74
2018-10-05T23:50:53.560Z,11.57
2018-10-05T23:53:22.548Z,11.48
2018-10-05T23:55:51.546Z,11.38
2018-10-05T23:58:20.550Z,11.32
